sensor_id;sensor_type;location;lat;lon;timestamp;temperature;humidity
64937;SHT30;51452;47.698;19.050;2023-04-25T00:02:20;12.77;73.56
64937;SHT30;51452;47.698;19.050;2023-04-25T00:04:45;12.74;73.19
64937;SHT30;51452;47.698;19.050;2023-04-25T00:07:11;12.68;73.20
64937;SHT30;51452;47.698;19.050;2023-04-25T00:09:37;12.68;73.19
64937;SHT30;51452;47.698;19.050;2023-04-25T00:12:03;12.72;72.35
64937;SHT30;51452;47.698;19.050;2023-04-25T00:14:29;12.61;72.52
64937;SHT30;51452;47.698;19.050;2023-04-25T00:16:54;12.60;72.12
64937;SHT30;51452;47.698;19.050;2023-04-25T00:19:20;12.61;72.05
64937;SHT30;51452;47.698;19.050;2023-04-25T00:21:45;12.56;71.83
64937;SHT30;51452;47.698;19.050;2023-04-25T00:24:12;12.53;71.78
64937;SHT30;51452;47.698;19.050;2023-04-25T00:26:37;12.61;71.43
64937;SHT30;51452;47.698;19.050;2023-04-25T00:29:03;12.76;70.94
64937;SHT30;51452;47.698;19.050;2023-04-25T00:31:28;12.68;70.62
64937;SHT30;51452;47.698;19.050;2023-04-25T00:33:54;12.66;70.86
64937;SHT30;51452;47.698;19.050;2023-04-25T00:36:20;12.57;71.33
64937;SHT30;51452;47.698;19.050;2023-04-25T00:38:45;12.50;70.98
64937;SHT30;51452;47.698;19.050;2023-04-25T00:41:10;12.59;70.86
64937;SHT30;51452;47.698;19.050;2023-04-25T00:43:37;12.56;70.93
64937;SHT30;51452;47.698;19.050;2023-04-25T00:46:02;12.56;70.97
64937;SHT30;51452;47.698;19.050;2023-04-25T00:48:28;12.52;71.63
64937;SHT30;51452;47.698;19.050;2023-04-25T00:50:56;12.50;71.99
64937;SHT30;51452;47.698;19.050;2023-04-25T00:53:23;12.53;72.59
64937;SHT30;51452;47.698;19.050;2023-04-25T00:55:49;12.47;72.59
64937;SHT30;51452;47.698;19.050;2023-04-25T00:58:21;12.56;72.61
64937;SHT30;51452;47.698;19.050;2023-04-25T01:00:49;12.53;72.39
64937;SHT30;51452;47.698;19.050;2023-04-25T01:03:16;12.53;72.79
64937;SHT30;51452;47.698;19.050;2023-04-25T01:05:43;12.63;71.88
64937;SHT30;51452;47.698;19.050;2023-04-25T01:08:09;12.56;72.09
64937;SHT30;51452;47.698;19.050;2023-04-25T01:10:35;12.59;72.38
64937;SHT30;51452;47.698;19.050;2023-04-25T01:13:01;12.53;72.10
64937;SHT30;51452;47.698;19.050;2023-04-25T01:15:26;12.45;72.05
64937;SHT30;51452;47.698;19.050;2023-04-25T01:17:52;12.40;72.14
64937;SHT30;51452;47.698;19.050;2023-04-25T01:20:21;12.37;72.46
64937;SHT30;51452;47.698;19.050;2023-04-25T01:22:47;12.30;72.76
64937;SHT30;51452;47.698;19.050;2023-04-25T01:25:12;12.36;72.39
64937;SHT30;51452;47.698;19.050;2023-04-25T01:27:38;12.33;72.59
64937;SHT30;51452;47.698;19.050;2023-04-25T01:30:05;12.35;72.30
64937;SHT30;51452;47.698;19.050;2023-04-25T01:32:31;12.39;72.18
64937;SHT30;51452;47.698;19.050;2023-04-25T01:35:04;12.29;72.46
64937;SHT30;51452;47.698;19.050;2023-04-25T01:37:35;12.28;72.72
64937;SHT30;51452;47.698;19.050;2023-04-25T01:40:01;12.19;73.01
64937;SHT30;51452;47.698;19.050;2023-04-25T01:42:26;12.21;73.03
64937;SHT30;51452;47.698;19.050;2023-04-25T01:44:52;12.15;73.12
64937;SHT30;51452;47.698;19.050;2023-04-25T01:47:18;12.21;73.02
64937;SHT30;51452;47.698;19.050;2023-04-25T01:49:43;12.12;72.72
64937;SHT30;51452;47.698;19.050;2023-04-25T01:52:09;12.12;72.81
64937;SHT30;51452;47.698;19.050;2023-04-25T01:54:34;12.11;72.58
64937;SHT30;51452;47.698;19.050;2023-04-25T01:57:00;12.01;72.65
64937;SHT30;51452;47.698;19.050;2023-04-25T01:59:25;12.01;72.52
64937;SHT30;51452;47.698;19.050;2023-04-25T02:01:51;11.96;72.56
64937;SHT30;51452;47.698;19.050;2023-04-25T02:04:16;11.88;71.91
64937;SHT30;51452;47.698;19.050;2023-04-25T02:06:41;11.94;71.98
64937;SHT30;51452;47.698;19.050;2023-04-25T02:09:07;11.82;71.98
64937;SHT30;51452;47.698;19.050;2023-04-25T02:11:32;11.94;72.13
64937;SHT30;51452;47.698;19.050;2023-04-25T02:13:57;11.88;71.91
64937;SHT30;51452;47.698;19.050;2023-04-25T02:16:23;11.89;72.32
64937;SHT30;51452;47.698;19.050;2023-04-25T02:18:48;11.98;72.00
64937;SHT30;51452;47.698;19.050;2023-04-25T02:21:13;11.94;71.98
64937;SHT30;51452;47.698;19.050;2023-04-25T02:23:40;11.89;72.22
64937;SHT30;51452;47.698;19.050;2023-04-25T02:26:05;11.88;72.43
64937;SHT30;51452;47.698;19.050;2023-04-25T02:28:31;11.91;71.24
64937;SHT30;51452;47.698;19.050;2023-04-25T02:30:56;11.84;71.20
64937;SHT30;51452;47.698;19.050;2023-04-25T02:33:22;11.91;70.07
64937;SHT30;51452;47.698;19.050;2023-04-25T02:35:47;11.91;68.36
64937;SHT30;51452;47.698;19.050;2023-04-25T02:38:13;11.96;68.34
64937;SHT30;51452;47.698;19.050;2023-04-25T02:40:38;11.94;67.86
64937;SHT30;51452;47.698;19.050;2023-04-25T02:43:03;11.91;67.93
64937;SHT30;51452;47.698;19.050;2023-04-25T02:45:29;11.91;67.51
64937;SHT30;51452;47.698;19.050;2023-04-25T02:47:54;11.86;67.18
64937;SHT30;51452;47.698;19.050;2023-04-25T02:50:19;11.82;67.60
64937;SHT30;51452;47.698;19.050;2023-04-25T02:52:45;11.84;67.82
64937;SHT30;51452;47.698;19.050;2023-04-25T02:55:11;11.74;68.32
64937;SHT30;51452;47.698;19.050;2023-04-25T02:57:37;11.75;68.46
64937;SHT30;51452;47.698;19.050;2023-04-25T03:00:03;11.73;69.70
64937;SHT30;51452;47.698;19.050;2023-04-25T03:02:30;11.78;69.57
64937;SHT30;51452;47.698;19.050;2023-04-25T03:04:55;11.71;69.73
64937;SHT30;51452;47.698;19.050;2023-04-25T03:07:20;11.73;70.18
64937;SHT30;51452;47.698;19.050;2023-04-25T03:09:46;11.77;70.24
64937;SHT30;51452;47.698;19.050;2023-04-25T03:12:11;11.77;70.28
64937;SHT30;51452;47.698;19.050;2023-04-25T03:14:37;11.74;70.39
64937;SHT30;51452;47.698;19.050;2023-04-25T03:17:02;11.68;70.27
64937;SHT30;51452;47.698;19.050;2023-04-25T03:19:27;11.73;70.70
64937;SHT30;51452;47.698;19.050;2023-04-25T03:21:53;11.60;71.16
64937;SHT30;51452;47.698;19.050;2023-04-25T03:24:18;11.64;70.94
64937;SHT30;51452;47.698;19.050;2023-04-25T03:26:44;11.58;70.12
64937;SHT30;51452;47.698;19.050;2023-04-25T03:29:09;11.65;70.62
64937;SHT30;51452;47.698;19.050;2023-04-25T03:31:34;11.64;70.12
64937;SHT30;51452;47.698;19.050;2023-04-25T03:34:00;11.67;70.30
64937;SHT30;51452;47.698;19.050;2023-04-25T03:36:25;11.61;70.48
64937;SHT30;51452;47.698;19.050;2023-04-25T03:38:50;11.60;71.28
64937;SHT30;51452;47.698;19.050;2023-04-25T03:41:16;11.47;70.94
64937;SHT30;51452;47.698;19.050;2023-04-25T03:43:41;11.55;71.12
64937;SHT30;51452;47.698;19.050;2023-04-25T03:46:07;11.41;70.32
64937;SHT30;51452;47.698;19.050;2023-04-25T03:48:32;11.35;70.45
64937;SHT30;51452;47.698;19.050;2023-04-25T03:50:57;11.38;69.65
64937;SHT30;51452;47.698;19.050;2023-04-25T03:53:23;11.45;69.54
64937;SHT30;51452;47.698;19.050;2023-04-25T03:55:48;11.41;70.91
64937;SHT30;51452;47.698;19.050;2023-04-25T03:58:13;11.47;71.12
64937;SHT30;51452;47.698;19.050;2023-04-25T04:00:39;11.44;71.32
64937;SHT30;51452;47.698;19.050;2023-04-25T04:03:04;11.37;72.00
64937;SHT30;51452;47.698;19.050;2023-04-25T04:05:30;11.34;72.83
64937;SHT30;51452;47.698;19.050;2023-04-25T04:07:56;11.27;72.36
64937;SHT30;51452;47.698;19.050;2023-04-25T04:10:22;11.30;72.79
64937;SHT30;51452;47.698;19.050;2023-04-25T04:12:47;11.31;72.78
64937;SHT30;51452;47.698;19.050;2023-04-25T04:15:12;11.33;72.79
64937;SHT30;51452;47.698;19.050;2023-04-25T04:17:38;11.27;72.69
64937;SHT30;51452;47.698;19.050;2023-04-25T04:20:04;11.27;73.39
64937;SHT30;51452;47.698;19.050;2023-04-25T04:22:29;11.14;74.08
64937;SHT30;51452;47.698;19.050;2023-04-25T04:24:55;11.19;74.12
64937;SHT30;51452;47.698;19.050;2023-04-25T04:27:22;11.14;74.13
64937;SHT30;51452;47.698;19.050;2023-04-25T04:29:47;11.14;74.19
64937;SHT30;51452;47.698;19.050;2023-04-25T04:32:14;11.06;74.85
64937;SHT30;51452;47.698;19.050;2023-04-25T04:34:39;11.03;75.22
64937;SHT30;51452;47.698;19.050;2023-04-25T04:37:06;10.96;74.62
64937;SHT30;51452;47.698;19.050;2023-04-25T04:39:35;10.96;74.87
64937;SHT30;51452;47.698;19.050;2023-04-25T04:42:00;11.02;75.20
64937;SHT30;51452;47.698;19.050;2023-04-25T04:44:27;11.02;75.16
64937;SHT30;51452;47.698;19.050;2023-04-25T04:46:53;11.04;75.30
64937;SHT30;51452;47.698;19.050;2023-04-25T04:49:19;11.02;75.10
64937;SHT30;51452;47.698;19.050;2023-04-25T04:51:44;10.95;75.76
64937;SHT30;51452;47.698;19.050;2023-04-25T04:54:09;10.88;75.86
64937;SHT30;51452;47.698;19.050;2023-04-25T04:56:35;10.93;76.48
64937;SHT30;51452;47.698;19.050;2023-04-25T04:59:00;10.91;75.76
64937;SHT30;51452;47.698;19.050;2023-04-25T05:01:28;10.86;76.73
64937;SHT30;51452;47.698;19.050;2023-04-25T05:03:54;10.82;77.21
64937;SHT30;51452;47.698;19.050;2023-04-25T05:06:25;10.79;77.38
64937;SHT30;51452;47.698;19.050;2023-04-25T05:08:51;10.76;77.64
64937;SHT30;51452;47.698;19.050;2023-04-25T05:11:16;10.85;78.24
64937;SHT30;51452;47.698;19.050;2023-04-25T05:13:41;10.86;77.65
64937;SHT30;51452;47.698;19.050;2023-04-25T05:16:07;10.77;78.10
64937;SHT30;51452;47.698;19.050;2023-04-25T05:18:32;10.75;78.35
64937;SHT30;51452;47.698;19.050;2023-04-25T05:20:57;10.73;78.34
64937;SHT30;51452;47.698;19.050;2023-04-25T05:23:23;10.77;79.13
64937;SHT30;51452;47.698;19.050;2023-04-25T05:25:48;10.72;78.43
64937;SHT30;51452;47.698;19.050;2023-04-25T05:28:13;10.80;79.10
64937;SHT30;51452;47.698;19.050;2023-04-25T05:30:39;10.72;78.43
64937;SHT30;51452;47.698;19.050;2023-04-25T05:33:05;10.77;78.99
64937;SHT30;51452;47.698;19.050;2023-04-25T05:35:49;10.59;79.10
64937;SHT30;51452;47.698;19.050;2023-04-25T05:38:15;10.54;79.33
64937;SHT30;51452;47.698;19.050;2023-04-25T05:40:40;10.51;79.61
64937;SHT30;51452;47.698;19.050;2023-04-25T05:43:06;10.45;79.22
64937;SHT30;51452;47.698;19.050;2023-04-25T05:45:31;10.44;79.10
64937;SHT30;51452;47.698;19.050;2023-04-25T05:47:56;10.46;78.99
64937;SHT30;51452;47.698;19.050;2023-04-25T05:50:22;10.48;78.39
64937;SHT30;51452;47.698;19.050;2023-04-25T05:52:47;10.41;79.00
64937;SHT30;51452;47.698;19.050;2023-04-25T05:55:12;10.33;78.00
64937;SHT30;51452;47.698;19.050;2023-04-25T05:57:38;10.27;79.90
64937;SHT30;51452;47.698;19.050;2023-04-25T06:00:07;10.33;80.20
64937;SHT30;51452;47.698;19.050;2023-04-25T06:02:34;10.14;83.13
64937;SHT30;51452;47.698;19.050;2023-04-25T06:04:59;9.67;87.71
64937;SHT30;51452;47.698;19.050;2023-04-25T06:07:25;9.40;90.02
64937;SHT30;51452;47.698;19.050;2023-04-25T06:09:50;9.25;91.06
64937;SHT30;51452;47.698;19.050;2023-04-25T06:12:16;9.12;91.58
64937;SHT30;51452;47.698;19.050;2023-04-25T06:14:41;9.07;92.44
64937;SHT30;51452;47.698;19.050;2023-04-25T06:17:06;9.07;93.25
64937;SHT30;51452;47.698;19.050;2023-04-25T06:19:34;9.00;93.49
64937;SHT30;51452;47.698;19.050;2023-04-25T06:22:01;9.05;93.84
64937;SHT30;51452;47.698;19.050;2023-04-25T06:24:26;9.16;94.21
64937;SHT30;51452;47.698;19.050;2023-04-25T06:26:51;9.22;93.66
64937;SHT30;51452;47.698;19.050;2023-04-25T06:29:18;9.26;94.03
64937;SHT30;51452;47.698;19.050;2023-04-25T06:31:43;9.33;93.81
64937;SHT30;51452;47.698;19.050;2023-04-25T06:34:08;9.23;93.84
64937;SHT30;51452;47.698;19.050;2023-04-25T06:36:34;9.14;94.08
64937;SHT30;51452;47.698;19.050;2023-04-25T06:38:59;9.26;94.16
64937;SHT30;51452;47.698;19.050;2023-04-25T06:41:25;9.28;93.91
64937;SHT30;51452;47.698;19.050;2023-04-25T06:43:50;9.46;94.01
64937;SHT30;51452;47.698;19.050;2023-04-25T06:46:15;9.49;93.83
64937;SHT30;51452;47.698;19.050;2023-04-25T06:48:41;9.59;94.00
64937;SHT30;51452;47.698;19.050;2023-04-25T06:51:06;9.69;93.77
64937;SHT30;51452;47.698;19.050;2023-04-25T06:53:32;9.73;92.94
64937;SHT30;51452;47.698;19.050;2023-04-25T06:55:57;9.73;93.12
64937;SHT30;51452;47.698;19.050;2023-04-25T06:58:22;9.79;93.34
64937;SHT30;51452;47.698;19.050;2023-04-25T07:00:48;9.83;93.08
64937;SHT30;51452;47.698;19.050;2023-04-25T07:03:13;9.98;93.20
64937;SHT30;51452;47.698;19.050;2023-04-25T07:05:38;9.97;92.77
64937;SHT30;51452;47.698;19.050;2023-04-25T07:08:04;9.62;91.67
64937;SHT30;51452;47.698;19.050;2023-04-25T07:10:30;9.76;93.15
64937;SHT30;51452;47.698;19.050;2023-04-25T07:12:55;9.84;92.54
64937;SHT30;51452;47.698;19.050;2023-04-25T07:15:20;9.98;92.11
64937;SHT30;51452;47.698;19.050;2023-04-25T07:17:46;10.04;92.56
64937;SHT30;51452;47.698;19.050;2023-04-25T07:20:11;9.98;92.34
64937;SHT30;51452;47.698;19.050;2023-04-25T07:22:37;10.13;92.28
64937;SHT30;51452;47.698;19.050;2023-04-25T07:25:02;10.18;92.18
64937;SHT30;51452;47.698;19.050;2023-04-25T07:27:29;10.35;92.29
64937;SHT30;51452;47.698;19.050;2023-04-25T07:29:55;10.46;92.12
64937;SHT30;51452;47.698;19.050;2023-04-25T07:32:20;10.64;92.20
64937;SHT30;51452;47.698;19.050;2023-04-25T07:34:45;10.56;91.54
64937;SHT30;51452;47.698;19.050;2023-04-25T07:37:11;10.46;90.79
64937;SHT30;51452;47.698;19.050;2023-04-25T07:39:36;10.54;91.74
64937;SHT30;51452;47.698;19.050;2023-04-25T07:42:02;10.82;92.34
64937;SHT30;51452;47.698;19.050;2023-04-25T07:44:29;11.00;92.48
64937;SHT30;51452;47.698;19.050;2023-04-25T07:46:55;10.86;89.88
64937;SHT30;51452;47.698;19.050;2023-04-25T07:49:21;10.96;90.62
64937;SHT30;51452;47.698;19.050;2023-04-25T07:51:46;10.93;89.84
64937;SHT30;51452;47.698;19.050;2023-04-25T07:54:15;11.00;89.65
64937;SHT30;51452;47.698;19.050;2023-04-25T07:56:41;10.95;90.33
64937;SHT30;51452;47.698;19.050;2023-04-25T07:59:06;11.13;90.84
64937;SHT30;51452;47.698;19.050;2023-04-25T08:01:33;11.41;91.46
64937;SHT30;51452;47.698;19.050;2023-04-25T08:03:59;11.60;90.97
64937;SHT30;51452;47.698;19.050;2023-04-25T08:06:24;11.63;89.73
64937;SHT30;51452;47.698;19.050;2023-04-25T08:08:50;11.54;89.88
64937;SHT30;51452;47.698;19.050;2023-04-25T08:11:16;11.63;88.85
64937;SHT30;51452;47.698;19.050;2023-04-25T08:13:41;11.78;90.34
64937;SHT30;51452;47.698;19.050;2023-04-25T08:16:06;11.84;88.68
64937;SHT30;51452;47.698;19.050;2023-04-25T08:18:32;11.82;88.24
64937;SHT30;51452;47.698;19.050;2023-04-25T08:20:57;12.02;88.94
64937;SHT30;51452;47.698;19.050;2023-04-25T08:23:22;12.19;89.95
64937;SHT30;51452;47.698;19.050;2023-04-25T08:25:48;12.30;89.90
64937;SHT30;51452;47.698;19.050;2023-04-25T08:28:14;12.35;89.46
64937;SHT30;51452;47.698;19.050;2023-04-25T08:30:40;12.49;88.97
64937;SHT30;51452;47.698;19.050;2023-04-25T08:33:05;12.68;89.65
64937;SHT30;51452;47.698;19.050;2023-04-25T08:35:31;12.67;87.56
64937;SHT30;51452;47.698;19.050;2023-04-25T08:37:58;12.66;88.70
64937;SHT30;51452;47.698;19.050;2023-04-25T08:40:26;12.66;87.02
64937;SHT30;51452;47.698;19.050;2023-04-25T08:42:54;12.40;83.95
64937;SHT30;51452;47.698;19.050;2023-04-25T08:45:20;12.53;88.39
64937;SHT30;51452;47.698;19.050;2023-04-25T08:47:47;12.57;86.91
64937;SHT30;51452;47.698;19.050;2023-04-25T08:50:14;12.57;85.79
64937;SHT30;51452;47.698;19.050;2023-04-25T08:52:46;12.59;86.95
64937;SHT30;51452;47.698;19.050;2023-04-25T08:55:13;12.79;87.69
64937;SHT30;51452;47.698;19.050;2023-04-25T08:57:40;12.63;84.19
64937;SHT30;51452;47.698;19.050;2023-04-25T09:00:11;12.37;82.58
64937;SHT30;51452;47.698;19.050;2023-04-25T09:02:39;12.23;84.76
64937;SHT30;51452;47.698;19.050;2023-04-25T09:05:06;12.23;84.71
64937;SHT30;51452;47.698;19.050;2023-04-25T09:07:35;12.39;82.76
64937;SHT30;51452;47.698;19.050;2023-04-25T09:10:00;12.60;85.33
64937;SHT30;51452;47.698;19.050;2023-04-25T09:12:29;12.70;81.24
64937;SHT30;51452;47.698;19.050;2023-04-25T09:15:04;12.90;83.88
64937;SHT30;51452;47.698;19.050;2023-04-25T09:17:31;13.00;82.35
64937;SHT30;51452;47.698;19.050;2023-04-25T09:20:12;12.98;78.42
64937;SHT30;51452;47.698;19.050;2023-04-25T09:22:38;13.03;82.00
64937;SHT30;51452;47.698;19.050;2023-04-25T09:25:11;12.97;78.54
64937;SHT30;51452;47.698;19.050;2023-04-25T09:27:49;13.05;80.88
64937;SHT30;51452;47.698;19.050;2023-04-25T09:30:16;12.94;77.70
64937;SHT30;51452;47.698;19.050;2023-04-25T09:32:43;13.00;78.97
64937;SHT30;51452;47.698;19.050;2023-04-25T09:35:08;13.11;79.92
64937;SHT30;51452;47.698;19.050;2023-04-25T09:37:34;13.21;78.63
64937;SHT30;51452;47.698;19.050;2023-04-25T09:40:05;13.22;79.05
64937;SHT30;51452;47.698;19.050;2023-04-25T09:42:31;13.32;78.64
64937;SHT30;51452;47.698;19.050;2023-04-25T09:44:58;13.26;77.04
64937;SHT30;51452;47.698;19.050;2023-04-25T09:47:25;13.12;77.04
64937;SHT30;51452;47.698;19.050;2023-04-25T09:49:52;13.28;78.65
64937;SHT30;51452;47.698;19.050;2023-04-25T09:52:24;13.12;75.89
64937;SHT30;51452;47.698;19.050;2023-04-25T09:54:50;13.19;75.24
64937;SHT30;51452;47.698;19.050;2023-04-25T09:57:19;13.35;74.26
64937;SHT30;51452;47.698;19.050;2023-04-25T09:59:50;13.65;76.87
64937;SHT30;51452;47.698;19.050;2023-04-25T10:02:25;13.70;73.86
64937;SHT30;51452;47.698;19.050;2023-04-25T10:04:51;13.82;73.63
64937;SHT30;51452;47.698;19.050;2023-04-25T10:07:18;13.96;74.35
64937;SHT30;51452;47.698;19.050;2023-04-25T10:09:48;14.16;74.55
64937;SHT30;51452;47.698;19.050;2023-04-25T10:12:16;14.27;73.28
64937;SHT30;51452;47.698;19.050;2023-04-25T10:14:42;14.16;70.67
64937;SHT30;51452;47.698;19.050;2023-04-25T10:17:10;14.28;72.39
64937;SHT30;51452;47.698;19.050;2023-04-25T10:19:36;14.42;73.45
64937;SHT30;51452;47.698;19.050;2023-04-25T10:22:13;14.44;71.22
64937;SHT30;51452;47.698;19.050;2023-04-25T10:24:39;14.47;67.46
64937;SHT30;51452;47.698;19.050;2023-04-25T10:27:06;14.28;66.45
64937;SHT30;51452;47.698;19.050;2023-04-25T10:29:31;14.16;67.25
64937;SHT30;51452;47.698;19.050;2023-04-25T10:31:57;14.09;67.10
64937;SHT30;51452;47.698;19.050;2023-04-25T10:34:25;14.12;67.98
64937;SHT30;51452;47.698;19.050;2023-04-25T10:37:02;14.04;68.42
64937;SHT30;51452;47.698;19.050;2023-04-25T10:39:28;13.93;67.17
64937;SHT30;51452;47.698;19.050;2023-04-25T10:41:57;14.04;68.06
64937;SHT30;51452;47.698;19.050;2023-04-25T10:44:26;14.20;67.63
64937;SHT30;51452;47.698;19.050;2023-04-25T10:46:52;14.03;66.02
64937;SHT30;51452;47.698;19.050;2023-04-25T10:57:26;14.18;65.46
64937;SHT30;51452;47.698;19.050;2023-04-25T10:59:51;14.38;67.94
64937;SHT30;51452;47.698;19.050;2023-04-25T11:02:17;14.45;64.25
64937;SHT30;51452;47.698;19.050;2023-04-25T11:04:42;14.48;64.68
64937;SHT30;51452;47.698;19.050;2023-04-25T11:09:37;14.84;64.45
64937;SHT30;51452;47.698;19.050;2023-04-25T11:12:03;14.92;62.36
64937;SHT30;51452;47.698;19.050;2023-04-25T11:14:30;14.98;61.81
64937;SHT30;51452;47.698;19.050;2023-04-25T11:16:57;14.93;63.88
64937;SHT30;51452;47.698;19.050;2023-04-25T11:19:23;14.69;59.35
64937;SHT30;51452;47.698;19.050;2023-04-25T11:21:49;14.74;59.76
64937;SHT30;51452;47.698;19.050;2023-04-25T11:24:16;14.54;61.95
64937;SHT30;51452;47.698;19.050;2023-04-25T11:26:42;14.76;62.35
64937;SHT30;51452;47.698;19.050;2023-04-25T11:29:08;14.88;61.43
64937;SHT30;51452;47.698;19.050;2023-04-25T11:31:33;14.79;60.58
64937;SHT30;51452;47.698;19.050;2023-04-25T11:33:59;14.85;59.69
64937;SHT30;51452;47.698;19.050;2023-04-25T11:36:25;14.89;57.85
64937;SHT30;51452;47.698;19.050;2023-04-25T11:38:52;15.00;60.86
64937;SHT30;51452;47.698;19.050;2023-04-25T11:41:21;15.02;57.37
64937;SHT30;51452;47.698;19.050;2023-04-25T11:43:48;15.26;60.40
64937;SHT30;51452;47.698;19.050;2023-04-25T11:46:14;15.37;57.47
64937;SHT30;51452;47.698;19.050;2023-04-25T11:48:41;15.46;55.21
64937;SHT30;51452;47.698;19.050;2023-04-25T11:51:06;15.39;51.84
64937;SHT30;51452;47.698;19.050;2023-04-25T11:53:32;15.35;56.01
64937;SHT30;51452;47.698;19.050;2023-04-25T11:55:58;15.37;54.00
64937;SHT30;51452;47.698;19.050;2023-04-25T11:58:24;15.36;51.78
64937;SHT30;51452;47.698;19.050;2023-04-25T12:00:50;15.32;52.04
64937;SHT30;51452;47.698;19.050;2023-04-25T12:03:17;15.13;51.81
64937;SHT30;51452;47.698;19.050;2023-04-25T12:05:44;15.09;52.73
64937;SHT30;51452;47.698;19.050;2023-04-25T12:10:38;15.25;53.88
64937;SHT30;51452;47.698;19.050;2023-04-25T12:13:23;15.02;54.89
64937;SHT30;51452;47.698;19.050;2023-04-25T12:15:49;14.93;56.57
64937;SHT30;51452;47.698;19.050;2023-04-25T12:18:19;14.74;56.72
64937;SHT30;51452;47.698;19.050;2023-04-25T12:20:44;14.79;56.52
64937;SHT30;51452;47.698;19.050;2023-04-25T12:23:09;14.89;56.23
64937;SHT30;51452;47.698;19.050;2023-04-25T12:28:22;14.95;55.80
64937;SHT30;51452;47.698;19.050;2023-04-25T12:31:06;15.36;57.20
64937;SHT30;51452;47.698;19.050;2023-04-25T12:33:33;15.33;54.78
64937;SHT30;51452;47.698;19.050;2023-04-25T12:35:59;15.23;54.79
64937;SHT30;51452;47.698;19.050;2023-04-25T12:38:30;15.46;54.24
64937;SHT30;51452;47.698;19.050;2023-04-25T12:40:57;15.67;56.30
64937;SHT30;51452;47.698;19.050;2023-04-25T12:43:23;15.71;54.00
64937;SHT30;51452;47.698;19.050;2023-04-25T12:45:49;15.74;53.31
64937;SHT30;51452;47.698;19.050;2023-04-25T12:48:16;15.77;50.95
64937;SHT30;51452;47.698;19.050;2023-04-25T12:50:41;15.70;51.15
64937;SHT30;51452;47.698;19.050;2023-04-25T12:53:07;15.70;48.49
64937;SHT30;51452;47.698;19.050;2023-04-25T12:55:32;15.75;49.45
64937;SHT30;51452;47.698;19.050;2023-04-25T12:57:58;16.02;49.56
64937;SHT30;51452;47.698;19.050;2023-04-25T13:00:23;16.09;50.86
64937;SHT30;51452;47.698;19.050;2023-04-25T13:02:49;16.29;50.92
64937;SHT30;51452;47.698;19.050;2023-04-25T13:05:15;16.41;48.13
64937;SHT30;51452;47.698;19.050;2023-04-25T13:07:40;16.56;50.50
64937;SHT30;51452;47.698;19.050;2023-04-25T13:10:06;16.83;49.91
64937;SHT30;51452;47.698;19.050;2023-04-25T13:12:32;16.44;46.82
64937;SHT30;51452;47.698;19.050;2023-04-25T13:14:57;16.46;46.72
64937;SHT30;51452;47.698;19.050;2023-04-25T13:17:23;16.05;47.96
64937;SHT30;51452;47.698;19.050;2023-04-25T13:19:48;16.02;46.87
64937;SHT30;51452;47.698;19.050;2023-04-25T13:22:14;15.90;47.11
64937;SHT30;51452;47.698;19.050;2023-04-25T13:24:41;15.88;47.83
64937;SHT30;51452;47.698;19.050;2023-04-25T13:27:07;15.93;49.50
64937;SHT30;51452;47.698;19.050;2023-04-25T13:29:32;16.24;48.29
64937;SHT30;51452;47.698;19.050;2023-04-25T13:32:00;16.44;47.27
64937;SHT30;51452;47.698;19.050;2023-04-25T13:34:26;16.33;45.98
64937;SHT30;51452;47.698;19.050;2023-04-25T13:36:51;16.60;46.64
64937;SHT30;51452;47.698;19.050;2023-04-25T13:39:17;16.56;46.53
64937;SHT30;51452;47.698;19.050;2023-04-25T13:41:42;16.55;45.92
64937;SHT30;51452;47.698;19.050;2023-04-25T13:44:08;16.38;45.20
64937;SHT30;51452;47.698;19.050;2023-04-25T13:46:33;16.21;44.63
64937;SHT30;51452;47.698;19.050;2023-04-25T13:48:59;16.28;44.50
64937;SHT30;51452;47.698;19.050;2023-04-25T13:51:24;16.29;45.78
64937;SHT30;51452;47.698;19.050;2023-04-25T13:53:51;16.32;46.35
64937;SHT30;51452;47.698;19.050;2023-04-25T13:56:16;16.48;44.07
64937;SHT30;51452;47.698;19.050;2023-04-25T13:58:41;16.57;46.99
64937;SHT30;51452;47.698;19.050;2023-04-25T14:01:07;16.41;44.00
64937;SHT30;51452;47.698;19.050;2023-04-25T14:03:32;16.26;43.31
64937;SHT30;51452;47.698;19.050;2023-04-25T14:05:58;16.38;46.83
64937;SHT30;51452;47.698;19.050;2023-04-25T14:08:23;16.51;45.59
64937;SHT30;51452;47.698;19.050;2023-04-25T14:10:48;16.46;42.74
64937;SHT30;51452;47.698;19.050;2023-04-25T14:13:14;16.51;43.46
64937;SHT30;51452;47.698;19.050;2023-04-25T14:15:40;16.41;43.17
64937;SHT30;51452;47.698;19.050;2023-04-25T14:18:05;16.42;44.40
64937;SHT30;51452;47.698;19.050;2023-04-25T14:20:31;16.57;43.60
64937;SHT30;51452;47.698;19.050;2023-04-25T14:22:56;16.80;46.95
64937;SHT30;51452;47.698;19.050;2023-04-25T14:25:23;16.86;45.09
64937;SHT30;51452;47.698;19.050;2023-04-25T14:27:49;16.81;45.59
64937;SHT30;51452;47.698;19.050;2023-04-25T14:30:19;16.72;41.75
64937;SHT30;51452;47.698;19.050;2023-04-25T14:32:44;16.59;43.11
64937;SHT30;51452;47.698;19.050;2023-04-25T14:35:10;16.55;43.98
64937;SHT30;51452;47.698;19.050;2023-04-25T14:37:36;16.39;43.12
64937;SHT30;51452;47.698;19.050;2023-04-25T14:40:01;16.14;42.84
64937;SHT30;51452;47.698;19.050;2023-04-25T14:42:27;16.12;42.51
64937;SHT30;51452;47.698;19.050;2023-04-25T14:44:52;15.93;41.81
64937;SHT30;51452;47.698;19.050;2023-04-25T14:47:18;16.08;43.43
64937;SHT30;51452;47.698;19.050;2023-04-25T14:49:43;16.05;42.94
64937;SHT30;51452;47.698;19.050;2023-04-25T14:52:09;15.91;41.75
64937;SHT30;51452;47.698;19.050;2023-04-25T14:54:36;16.00;42.96
64937;SHT30;51452;47.698;19.050;2023-04-25T14:57:01;15.90;42.41
64937;SHT30;51452;47.698;19.050;2023-04-25T14:59:27;15.85;43.70
64937;SHT30;51452;47.698;19.050;2023-04-25T15:01:53;15.91;43.73
64937;SHT30;51452;47.698;19.050;2023-04-25T15:04:18;15.85;41.79
64937;SHT30;51452;47.698;19.050;2023-04-25T15:06:44;15.74;40.62
64937;SHT30;51452;47.698;19.050;2023-04-25T15:09:09;15.67;41.38
64937;SHT30;51452;47.698;19.050;2023-04-25T15:11:36;15.83;42.27
64937;SHT30;51452;47.698;19.050;2023-04-25T15:14:02;15.91;42.81
64937;SHT30;51452;47.698;19.050;2023-04-25T15:16:27;15.85;41.65
64937;SHT30;51452;47.698;19.050;2023-04-25T15:18:53;16.01;41.52
64937;SHT30;51452;47.698;19.050;2023-04-25T15:21:18;16.09;43.50
64937;SHT30;51452;47.698;19.050;2023-04-25T15:23:43;16.09;42.59
64937;SHT30;51452;47.698;19.050;2023-04-25T15:26:09;16.09;41.44
64937;SHT30;51452;47.698;19.050;2023-04-25T15:28:34;16.00;42.34